This is the latest recevied weather packets stored in our database for station/object VK2KGV-15. If no packets are shown the sender has not sent any weather packets the latest 10 day(s).
| Time | Temp. | Humidity | Pressure | Rain* | Wind** | Luminosity | Snow |
|---|---|---|---|---|---|---|---|
| 1777929110 | 15.56° C | 72% | 1019 hPa | 0 mm | - | - | - |
| 1777926698 | 15° C | 72% | 1018.6 hPa | 0 mm | - | - | - |
| 1777924285 | 13.89° C | 71% | 1018.5 hPa | 0 mm | - | - | - |
| 1777923079 | 13.89° C | 72% | 1018.4 hPa | 0 mm | - | - | - |
| 1777920667 | 12.78° C | 72% | 1017.9 hPa | 0 mm | - | - | - |
| 1777917048 | 11.67° C | 75% | 1017.8 hPa | 0 mm | - | - | - |
| 1777916445 | 11.67° C | 74% | 1017.8 hPa | 0 mm | - | - | - |
| 1777915842 | 11.11° C | 74% | 1017.7 hPa | 0 mm | - | - | - |
| 1777914636 | 11.11° C | 73% | 1017.6 hPa | 0 mm | - | - | - |
| 1777914033 | 11.11° C | 73% | 1017.6 hPa | 0 mm | - | - | - |
| 1777913430 | 11.11° C | 73% | 1017.6 hPa | 0 mm | - | - | - |
| 1777912223 | 11.11° C | 72% | 1017.7 hPa | 0 mm | - | - | - |
| 1777911620 | 11.67° C | 73% | 1017.7 hPa | 0 mm | - | - | - |
| 1777911017 | 11.11° C | 72% | 1017.9 hPa | 0 mm | - | - | - |
| 1777909811 | 11.11° C | 70% | 1017.9 hPa | 0 mm | - | - | - |
| 1777908605 | 11.67° C | 69% | 1017.7 hPa | 0 mm | - | - | - |
| 1777904986 | 12.78° C | 64% | 1018 hPa | 0 mm | - | - | - |
| 1777903780 | 12.78° C | 64% | 1018.1 hPa | 0 mm | - | - | - |
| 1777902574 | 13.33° C | 62% | 1017.9 hPa | 0 mm | - | - | - |
| 1777901368 | 13.89° C | 60% | 1018.1 hPa | 0 mm | - | - | - |
| 1777900161 | 14.44° C | 58% | 1017.9 hPa | 0 mm | - | - | - |
| 1777898955 | 14.44° C | 56% | 1017.9 hPa | 0 mm | - | - | - |
| 1777897749 | 15.56° C | 54% | 1017.9 hPa | 0 mm | - | - | - |
| 1777896543 | 15.56° C | 54% | 1018.3 hPa | 0 mm | - | - | - |
| 1777894130 | 14.44° C | 57% | 1018.6 hPa | 0 mm | - | - | - |
* Rain since midnight (hover to see other rain measurements)
** Current wind speed in m/s (hover to see current wind gust speed)